Pagrindinis puslapis
METAR-TAF:

METAR-TAF

Oro uostai :

Dandi, Škotija

platuma: 56-27N, ilguma: 003-01W, Aukštis: 4 m

Dabartinis oras

Ataskaita buvo paskelbta 34 minutes, ne 17:50 UTC
Vėjas 15 kt iš Pietvakarių
Temperatūra 7°C
Drėgmė 66%
Slėgis 994 hPa
Matomumas 10 km arba daugiau
Mažai debesys ne aukštis 2500 ft

METAR: EGPN 291750Z 22015KT 9999 FEW025 07/01 Q0994

Laikas: 18:24 (18:24 UTC)

Prognozė

Ataskaita buvo paskelbta 1 valandą ir 32 minutes, ne 16:52 UTC
Prognozė galioja nuo 29 metu 18 UTC su 29 metu 21 UTC
Vėjas 12 kt iš Pietvakarių
Matomumas 10 km arba daugiau
Mažai debesys ne aukštis 3000 ft
Tikimybė 30% :
Laikinai
nuo 29 metu 18 UTC su 29 metu 21 UTC
Matomumas: 8000 m
Su prošvaistėmis ne aukštis 1400 ft
lietus,

TAF: EGPN 291652Z 2918/2921 22012KT 9999 FEW030 PROB30 TEMPO 2918/2921 8000 -SHRA BKN014

Orai ataskaitas ir orų prognozės (METAR, TAF).

turimą stotys yra geltonos ir raudonos taškus žemėlapyje.

Perkelti pele per norėdami pamatyti stoties vardą.

Tada spustelėkite, norėdami matyti oro stebėjimo ir prognozės.

Norėdami pakeisti žemėlapį: spustelėkite ant žalios mygtukų su juodo kryžiaus žemyn,; žalią mygtuką su brūkšneliu, jei norite nutolinti; arba žalių rodyklių gretimoms žemėlapius.


METAR-TAF: